createdAt,value
2018-01-07T00:01:01.177Z,996.7
2018-01-07T00:02:02.722Z,996.7
2018-01-07T00:03:04.211Z,996.7
2018-01-07T00:04:05.709Z,996.7
2018-01-07T00:05:07.214Z,996.7
2018-01-07T00:06:08.739Z,996.7
2018-01-07T00:07:10.263Z,996.7
2018-01-07T00:08:11.780Z,996.7
2018-01-07T00:09:13.301Z,996.7
2018-01-07T00:10:14.754Z,996.7
2018-01-07T00:11:16.226Z,996.7
2018-01-07T00:12:17.729Z,996.7
2018-01-07T00:13:19.318Z,996.8
2018-01-07T00:14:20.768Z,996.8
2018-01-07T00:15:22.253Z,996.8
2018-01-07T00:16:23.838Z,996.9
2018-01-07T00:17:25.313Z,996.9
2018-01-07T00:18:26.790Z,996.9
2018-01-07T00:19:28.299Z,996.9
2018-01-07T00:20:29.788Z,996.9
2018-01-07T00:21:31.262Z,996.9
2018-01-07T00:22:32.758Z,996.9
2018-01-07T00:23:34.280Z,996.9
2018-01-07T00:24:35.793Z,996.9
2018-01-07T00:25:37.369Z,997.0
2018-01-07T00:26:38.838Z,997.0
2018-01-07T00:27:40.388Z,997.0
2018-01-07T00:28:42.074Z,997.0
2018-01-07T00:29:43.635Z,997.0
2018-01-07T00:30:45.103Z,997.0
2018-01-07T00:31:46.642Z,997.0
2018-01-07T00:32:48.333Z,997.1
2018-01-07T00:33:49.849Z,997.1
2018-01-07T00:34:51.414Z,997.1
2018-01-07T00:35:52.993Z,997.1
2018-01-07T00:36:54.516Z,997.2
2018-01-07T00:37:56.027Z,997.1
2018-01-07T00:38:57.537Z,997.2
2018-01-07T00:39:59.295Z,997.2
2018-01-07T00:41:00.767Z,997.2
2018-01-07T00:42:02.260Z,997.2
2018-01-07T00:43:03.806Z,997.2
2018-01-07T00:44:05.286Z,997.2
2018-01-07T00:45:06.806Z,997.2
2018-01-07T00:46:08.353Z,997.2
2018-01-07T00:47:09.866Z,997.2
2018-01-07T00:48:11.320Z,997.2
2018-01-07T00:49:12.857Z,997.2
2018-01-07T00:50:14.328Z,997.3
2018-01-07T00:51:15.781Z,997.3
2018-01-07T00:52:17.501Z,997.3
2018-01-07T00:53:18.968Z,997.3
2018-01-07T00:54:20.490Z,997.3
2018-01-07T00:55:21.990Z,997.3
2018-01-07T00:56:23.532Z,997.4
2018-01-07T00:57:25.069Z,997.4
2018-01-07T00:58:26.560Z,997.4
2018-01-07T00:59:28.035Z,997.4
2018-01-07T01:00:29.576Z,997.4
2018-01-07T01:01:31.096Z,997.5
2018-01-07T01:02:32.657Z,997.4
2018-01-07T01:03:34.236Z,997.4
2018-01-07T01:04:35.764Z,997.4
2018-01-07T01:05:37.255Z,997.4
2018-01-07T01:06:38.732Z,997.4
2018-01-07T01:07:40.243Z,997.4
2018-01-07T01:08:41.736Z,997.4
2018-01-07T01:09:43.123Z,997.4
2018-01-07T01:10:44.678Z,997.5
2018-01-07T01:11:46.234Z,997.4
2018-01-07T01:12:47.779Z,997.5
2018-01-07T01:13:49.301Z,997.5
2018-01-07T01:14:50.795Z,997.5
2018-01-07T01:15:52.277Z,997.5
2018-01-07T01:16:53.800Z,997.6
2018-01-07T01:17:55.272Z,997.5
2018-01-07T01:18:56.837Z,997.6
2018-01-07T01:19:58.577Z,997.7
2018-01-07T01:21:00.115Z,997.7
2018-01-07T01:22:01.622Z,997.8
2018-01-07T01:23:03.167Z,997.8
2018-01-07T01:24:04.648Z,997.8
2018-01-07T01:25:06.152Z,998.0
2018-01-07T01:26:09.092Z,998.0
2018-01-07T01:27:10.545Z,998.0
2018-01-07T01:28:11.992Z,998.1
2018-01-07T01:29:13.491Z,998.1
2018-01-07T01:30:14.967Z,998.0
2018-01-07T01:31:16.430Z,998.1
2018-01-07T01:32:17.961Z,998.1
2018-01-07T01:33:19.468Z,998.2
2018-01-07T01:34:21.021Z,998.2
2018-01-07T01:35:22.596Z,998.2
2018-01-07T01:36:24.094Z,998.3
2018-01-07T01:37:25.604Z,998.3
2018-01-07T01:38:27.048Z,998.3
2018-01-07T01:39:28.669Z,998.4
2018-01-07T01:40:30.068Z,998.4
2018-01-07T01:41:31.577Z,998.4
2018-01-07T01:42:33.083Z,998.4
2018-01-07T01:43:34.582Z,998.4
2018-01-07T01:44:36.073Z,998.4
2018-01-07T01:45:37.585Z,998.4
2018-01-07T01:46:39.108Z,998.3
2018-01-07T01:47:40.600Z,998.4
2018-01-07T01:48:42.041Z,998.4
2018-01-07T01:49:43.775Z,998.4
2018-01-07T01:50:45.269Z,998.3
2018-01-07T01:51:46.740Z,998.3
2018-01-07T01:52:48.217Z,998.3
2018-01-07T01:53:49.745Z,998.3
2018-01-07T01:54:51.240Z,998.4
2018-01-07T01:55:52.693Z,998.4
2018-01-07T01:56:54.282Z,998.4
2018-01-07T01:57:55.797Z,998.5
2018-01-07T01:58:57.332Z,998.5
2018-01-07T01:59:58.893Z,998.5
2018-01-07T02:01:00.341Z,998.5
2018-01-07T02:02:02.174Z,998.5
2018-01-07T02:03:03.688Z,998.6
2018-01-07T02:04:05.217Z,998.6
2018-01-07T02:05:06.662Z,998.6
2018-01-07T02:06:08.159Z,998.7
2018-01-07T02:07:09.630Z,998.7
2018-01-07T02:08:11.122Z,998.7
2018-01-07T02:09:12.671Z,998.7
2018-01-07T02:10:14.190Z,998.7
2018-01-07T02:11:15.747Z,998.7
2018-01-07T02:12:17.227Z,998.6
2018-01-07T02:13:18.710Z,998.6
2018-01-07T02:14:20.149Z,998.7
2018-01-07T02:15:21.663Z,998.6
2018-01-07T02:16:23.177Z,998.6
2018-01-07T02:17:24.667Z,998.6
2018-01-07T02:18:26.133Z,998.6
2018-01-07T02:19:27.597Z,998.6
2018-01-07T02:20:29.063Z,998.6
2018-01-07T02:21:30.606Z,998.7
2018-01-07T02:22:32.168Z,998.7
2018-01-07T02:23:33.699Z,998.7
2018-01-07T02:24:35.190Z,998.7
2018-01-07T02:25:36.696Z,998.7
2018-01-07T02:26:38.191Z,998.7
2018-01-07T02:27:39.708Z,998.7
2018-01-07T02:28:41.230Z,998.8
2018-01-07T02:29:43.668Z,998.8
2018-01-07T02:30:45.185Z,998.8
2018-01-07T02:31:46.648Z,998.8
2018-01-07T02:32:48.193Z,998.8
2018-01-07T02:33:49.679Z,998.8
2018-01-07T02:34:51.172Z,998.8
2018-01-07T02:35:52.765Z,998.9
2018-01-07T02:36:54.220Z,998.9
2018-01-07T02:37:55.733Z,998.8
2018-01-07T02:38:57.198Z,998.9
2018-01-07T02:39:58.656Z,998.8
2018-01-07T02:41:00.135Z,998.8
2018-01-07T02:42:01.544Z,998.9
2018-01-07T02:43:02.965Z,998.9
2018-01-07T02:44:04.389Z,999.0
2018-01-07T02:45:05.818Z,999.0
2018-01-07T02:46:07.329Z,999.0
2018-01-07T02:47:08.839Z,999.0
2018-01-07T02:48:10.304Z,999.1
2018-01-07T02:49:11.772Z,999.0
2018-01-07T02:50:13.252Z,999.0
2018-01-07T02:51:14.736Z,999.1
2018-01-07T02:52:16.226Z,999.1
2018-01-07T02:53:17.690Z,999.1
2018-01-07T02:54:19.184Z,999.1
2018-01-07T02:55:20.670Z,999.1
2018-01-07T02:56:22.152Z,999.1
2018-01-07T02:57:23.634Z,999.2
2018-01-07T02:58:25.184Z,999.2
2018-01-07T02:59:26.717Z,999.2
2018-01-07T03:00:28.208Z,999.3
2018-01-07T03:01:29.760Z,999.3
2018-01-07T03:02:31.249Z,999.3
2018-01-07T03:03:32.786Z,999.3
2018-01-07T03:04:34.371Z,999.2
2018-01-07T03:05:35.895Z,999.2
2018-01-07T03:06:37.356Z,999.2
2018-01-07T03:07:38.855Z,999.2
2018-01-07T03:08:40.356Z,999.2
2018-01-07T03:09:41.887Z,999.3
2018-01-07T03:10:43.382Z,999.3
2018-01-07T03:11:44.924Z,999.3
2018-01-07T03:12:46.451Z,999.3
2018-01-07T03:13:47.986Z,999.3
2018-01-07T03:14:49.487Z,999.3
2018-01-07T03:15:50.954Z,999.4
2018-01-07T03:16:52.476Z,999.5
2018-01-07T03:17:54.025Z,999.4
2018-01-07T03:18:55.604Z,999.5
2018-01-07T03:19:57.025Z,999.5
2018-01-07T03:20:58.622Z,999.5
2018-01-07T03:22:00.037Z,999.5
2018-01-07T03:23:01.520Z,999.5
2018-01-07T03:24:03.000Z,999.5
2018-01-07T03:25:04.498Z,999.6
2018-01-07T03:26:06.045Z,999.6
2018-01-07T03:27:07.520Z,999.6
2018-01-07T03:28:09.051Z,999.6
2018-01-07T03:29:10.565Z,999.6
2018-01-07T03:30:12.101Z,999.6
2018-01-07T03:31:13.574Z,999.7
2018-01-07T03:32:15.027Z,999.6
2018-01-07T03:33:17.299Z,999.7
2018-01-07T03:34:18.770Z,999.6
2018-01-07T03:35:20.272Z,999.6
2018-01-07T03:36:21.771Z,999.6
2018-01-07T03:37:23.310Z,999.6
2018-01-07T03:38:24.759Z,999.7
2018-01-07T03:39:26.259Z,999.6
2018-01-07T03:40:27.740Z,999.7
2018-01-07T03:41:29.193Z,999.7
2018-01-07T03:42:30.671Z,999.7
2018-01-07T03:43:32.167Z,999.7
2018-01-07T03:44:33.658Z,999.7
2018-01-07T03:45:35.146Z,999.7
2018-01-07T03:46:36.729Z,999.7
2018-01-07T03:47:38.170Z,999.7
2018-01-07T03:48:39.658Z,999.6
2018-01-07T03:49:41.169Z,999.7
2018-01-07T03:50:42.631Z,999.7
2018-01-07T03:51:44.103Z,999.7
2018-01-07T03:52:45.582Z,999.6
2018-01-07T03:53:47.080Z,999.7
2018-01-07T03:54:48.547Z,999.7
2018-01-07T03:55:50.060Z,999.6
2018-01-07T03:56:51.599Z,999.6
2018-01-07T03:57:53.169Z,999.7
2018-01-07T03:58:54.772Z,999.7
2018-01-07T03:59:56.246Z,999.7
2018-01-07T04:00:57.744Z,999.7
2018-01-07T04:01:59.294Z,999.7
2018-01-07T04:03:00.813Z,999.7
2018-01-07T04:04:02.326Z,999.8
2018-01-07T04:05:03.807Z,999.8
2018-01-07T04:06:05.313Z,999.8
2018-01-07T04:07:06.846Z,999.8
2018-01-07T04:08:08.338Z,999.8
2018-01-07T04:09:09.850Z,999.9
2018-01-07T04:10:11.316Z,999.9
2018-01-07T04:11:12.869Z,999.9
2018-01-07T04:12:14.411Z,1000.0
2018-01-07T04:13:15.965Z,1000.0
2018-01-07T04:14:17.476Z,1000.0
2018-01-07T04:15:18.984Z,1000.0
2018-01-07T04:16:20.460Z,1000.1
2018-01-07T04:17:21.982Z,1000.1
2018-01-07T04:18:23.511Z,1000.1
2018-01-07T04:19:25.051Z,1000.1
2018-01-07T04:20:26.616Z,1000.1
2018-01-07T04:21:28.106Z,1000.1
2018-01-07T04:22:29.560Z,1000.2
2018-01-07T04:23:31.061Z,1000.2
2018-01-07T04:24:32.541Z,1000.2
2018-01-07T04:25:34.056Z,1000.2
2018-01-07T04:26:35.561Z,1000.2
2018-01-07T04:27:37.072Z,1000.2
2018-01-07T04:28:38.548Z,1000.2
2018-01-07T04:29:40.079Z,1000.2
2018-01-07T04:30:41.545Z,1000.2
2018-01-07T04:31:43.039Z,1000.2
2018-01-07T04:32:44.618Z,1000.2
2018-01-07T04:33:46.115Z,1000.2
2018-01-07T04:34:47.633Z,1000.2
2018-01-07T04:35:49.136Z,1000.2
2018-01-07T04:36:51.165Z,1000.2
2018-01-07T04:37:52.660Z,1000.3
2018-01-07T04:38:54.206Z,1000.3
2018-01-07T04:39:55.741Z,1000.2
2018-01-07T04:40:57.231Z,1000.3
2018-01-07T04:41:58.755Z,1000.3
2018-01-07T04:43:00.260Z,1000.3
2018-01-07T04:44:01.718Z,1000.4
2018-01-07T04:45:03.183Z,1000.4
2018-01-07T04:46:04.702Z,1000.4
2018-01-07T04:47:06.248Z,1000.4
2018-01-07T04:48:07.766Z,1000.4
2018-01-07T04:49:09.298Z,1000.5
2018-01-07T04:50:10.839Z,1000.5
2018-01-07T04:51:12.293Z,1000.5
2018-01-07T04:52:13.771Z,1000.5
2018-01-07T04:53:15.241Z,1000.5
2018-01-07T04:54:16.758Z,1000.6
2018-01-07T04:55:18.318Z,1000.6
2018-01-07T04:56:19.787Z,1000.6
2018-01-07T04:57:21.674Z,1000.6
2018-01-07T04:58:23.235Z,1000.6
2018-01-07T04:59:24.736Z,1000.6
2018-01-07T05:00:26.290Z,1000.6
2018-01-07T05:01:27.877Z,1000.7
2018-01-07T05:02:29.402Z,1000.6
2018-01-07T05:03:30.921Z,1000.7
2018-01-07T05:04:32.453Z,1000.7
2018-01-07T05:05:33.962Z,1000.7
2018-01-07T05:06:35.506Z,1000.7
2018-01-07T05:07:37.024Z,1000.7
2018-01-07T05:08:38.554Z,1000.7
2018-01-07T05:09:40.013Z,1000.7
2018-01-07T05:10:41.524Z,1000.7
2018-01-07T05:11:43.079Z,1000.8
2018-01-07T05:12:44.618Z,1000.8
2018-01-07T05:13:46.185Z,1000.8
2018-01-07T05:14:47.679Z,1000.8
2018-01-07T05:15:49.277Z,1000.8
2018-01-07T05:16:50.807Z,1000.9
2018-01-07T05:17:52.417Z,1000.9
2018-01-07T05:18:53.846Z,1000.9
2018-01-07T05:19:55.349Z,1001.0
2018-01-07T05:20:56.859Z,1001.0
2018-01-07T05:21:58.415Z,1001.0
2018-01-07T05:22:59.902Z,1001.0
2018-01-07T05:24:01.413Z,1001.0
2018-01-07T05:25:02.930Z,1001.0
2018-01-07T05:26:04.584Z,1001.0
2018-01-07T05:27:06.136Z,1001.1
2018-01-07T05:28:07.675Z,1001.1
2018-01-07T05:29:09.236Z,1001.1
2018-01-07T05:30:10.742Z,1001.2
2018-01-07T05:31:12.231Z,1001.2
2018-01-07T05:32:13.804Z,1001.2
2018-01-07T05:33:15.352Z,1001.2
2018-01-07T05:34:16.838Z,1001.2
2018-01-07T05:35:18.347Z,1001.3
2018-01-07T05:36:19.892Z,1001.2
2018-01-07T05:37:21.438Z,1001.3
2018-01-07T05:38:22.917Z,1001.4
2018-01-07T05:39:24.471Z,1001.3
2018-01-07T05:40:25.968Z,1001.4
2018-01-07T05:41:27.483Z,1001.4
2018-01-07T05:42:29.068Z,1001.4
2018-01-07T05:43:30.528Z,1001.4
2018-01-07T05:44:32.051Z,1001.4
2018-01-07T05:45:33.590Z,1001.4
2018-01-07T05:46:35.064Z,1001.5
2018-01-07T05:47:36.603Z,1001.5
2018-01-07T05:48:38.144Z,1001.5
2018-01-07T05:49:39.651Z,1001.5
2018-01-07T05:50:41.180Z,1001.5
2018-01-07T05:51:42.703Z,1001.5
2018-01-07T05:52:44.248Z,1001.5
2018-01-07T05:53:45.716Z,1001.5
2018-01-07T05:54:47.183Z,1001.5
2018-01-07T05:55:48.660Z,1001.6
2018-01-07T05:56:50.123Z,1001.6
2018-01-07T05:57:51.586Z,1001.6
2018-01-07T05:58:53.098Z,1001.6
2018-01-07T05:59:54.589Z,1001.6
2018-01-07T06:00:56.054Z,1001.7
2018-01-07T06:01:57.569Z,1001.7
2018-01-07T06:02:59.048Z,1001.7
2018-01-07T06:04:00.604Z,1001.7
2018-01-07T06:05:02.169Z,1001.8
2018-01-07T06:06:03.640Z,1001.8
2018-01-07T06:07:05.117Z,1001.9
2018-01-07T06:08:06.627Z,1001.9
2018-01-07T06:09:08.138Z,1001.9
2018-01-07T06:10:09.657Z,1002.0
2018-01-07T06:11:11.171Z,1002.1
2018-01-07T06:12:12.711Z,1002.1
2018-01-07T06:13:14.168Z,1002.1
2018-01-07T06:14:15.678Z,1002.1
2018-01-07T06:15:17.231Z,1002.1
2018-01-07T06:16:18.776Z,1002.1
2018-01-07T06:17:20.294Z,1002.2
2018-01-07T06:18:21.807Z,1002.2
2018-01-07T06:19:23.352Z,1002.2
2018-01-07T06:20:24.879Z,1002.2
2018-01-07T06:21:26.437Z,1002.2
2018-01-07T06:22:27.922Z,1002.3
2018-01-07T06:23:29.429Z,1002.3
2018-01-07T06:24:30.975Z,1002.3
2018-01-07T06:25:32.558Z,1002.3
2018-01-07T06:26:34.073Z,1002.4
2018-01-07T06:27:36.110Z,1002.4
2018-01-07T06:28:37.619Z,1002.4
2018-01-07T06:29:39.140Z,1002.4
2018-01-07T06:30:40.645Z,1002.4
2018-01-07T06:31:42.233Z,1002.5
2018-01-07T06:32:43.756Z,1002.5
2018-01-07T06:33:45.312Z,1002.5
2018-01-07T06:34:46.819Z,1002.6
2018-01-07T06:35:48.352Z,1002.6
2018-01-07T06:36:49.954Z,1002.6
2018-01-07T06:37:51.430Z,1002.6
2018-01-07T06:38:52.954Z,1002.6
2018-01-07T06:39:54.429Z,1002.7
2018-01-07T06:40:55.996Z,1002.7
2018-01-07T06:41:57.541Z,1002.7
2018-01-07T06:42:59.091Z,1002.7
2018-01-07T06:44:00.759Z,1002.8
2018-01-07T06:45:02.562Z,1002.7
2018-01-07T06:46:04.137Z,1002.7
2018-01-07T06:47:05.730Z,1002.8
2018-01-07T06:48:07.241Z,1002.8
2018-01-07T06:49:10.185Z,1002.8
2018-01-07T06:50:11.741Z,1002.8
2018-01-07T06:51:13.279Z,1002.8
2018-01-07T06:52:14.778Z,1002.9
2018-01-07T06:53:16.325Z,1002.9
2018-01-07T06:54:17.810Z,1003.0
2018-01-07T06:55:19.281Z,1002.9
2018-01-07T06:56:20.787Z,1002.9
2018-01-07T06:57:22.324Z,1003.0
2018-01-07T06:58:23.907Z,1003.0
2018-01-07T06:59:25.405Z,1003.0
2018-01-07T07:00:26.964Z,1003.0
2018-01-07T07:01:28.423Z,1003.1
2018-01-07T07:02:29.880Z,1003.1
2018-01-07T07:03:31.399Z,1003.1
2018-01-07T07:04:32.958Z,1003.2
2018-01-07T07:05:34.508Z,1003.2
2018-01-07T07:06:36.029Z,1003.1
2018-01-07T07:07:37.562Z,1003.2
2018-01-07T07:08:39.087Z,1003.2
2018-01-07T07:09:40.583Z,1003.3
2018-01-07T07:10:42.090Z,1003.3
2018-01-07T07:11:43.615Z,1003.3
2018-01-07T07:12:45.183Z,1003.3
2018-01-07T07:13:46.722Z,1003.4
2018-01-07T07:14:48.215Z,1003.4
2018-01-07T07:15:49.712Z,1003.4
2018-01-07T07:16:51.235Z,1003.4
2018-01-07T07:17:52.722Z,1003.4
2018-01-07T07:18:54.246Z,1003.4
2018-01-07T07:19:55.839Z,1003.4
2018-01-07T07:20:57.332Z,1003.4
2018-01-07T07:21:58.921Z,1003.5
2018-01-07T07:23:00.471Z,1003.4
2018-01-07T07:24:02.022Z,1003.5
2018-01-07T07:25:03.545Z,1003.5
2018-01-07T07:26:05.095Z,1003.6
2018-01-07T07:27:06.646Z,1003.6
2018-01-07T07:28:08.149Z,1003.7
2018-01-07T07:29:09.678Z,1003.7
2018-01-07T07:30:11.201Z,1003.7
2018-01-07T07:31:12.699Z,1003.8
2018-01-07T07:32:14.199Z,1003.7
2018-01-07T07:33:15.811Z,1003.8
2018-01-07T07:34:17.310Z,1003.8
2018-01-07T07:35:19.234Z,1003.8
2018-01-07T07:36:20.845Z,1003.9
2018-01-07T07:37:22.334Z,1003.9
2018-01-07T07:38:23.939Z,1003.9
2018-01-07T07:39:25.473Z,1003.9
2018-01-07T07:40:27.038Z,1003.9
2018-01-07T07:41:28.953Z,1004.0
2018-01-07T07:42:30.488Z,1004.0
2018-01-07T07:43:32.018Z,1004.0
2018-01-07T07:44:33.587Z,1004.1
2018-01-07T07:45:35.223Z,1004.1
2018-01-07T07:46:36.761Z,1004.1
2018-01-07T07:47:38.285Z,1004.1
2018-01-07T07:48:39.868Z,1004.2
2018-01-07T07:49:41.433Z,1004.1
2018-01-07T07:50:42.928Z,1004.2
2018-01-07T07:51:44.910Z,1004.2
2018-01-07T07:52:46.388Z,1004.2
2018-01-07T07:53:47.983Z,1004.3
2018-01-07T07:54:50.601Z,1004.3
2018-01-07T07:55:52.136Z,1004.3
2018-01-07T07:56:53.592Z,1004.3
2018-01-07T07:57:55.170Z,1004.3
2018-01-07T07:58:56.664Z,1004.4
2018-01-07T07:59:58.329Z,1004.3
2018-01-07T08:01:00.262Z,1004.4
2018-01-07T08:02:01.842Z,1004.3
2018-01-07T08:03:03.361Z,1004.3
2018-01-07T08:04:04.906Z,1004.3
2018-01-07T08:05:06.438Z,1004.2
2018-01-07T08:06:08.071Z,1004.2
2018-01-07T08:07:09.628Z,1004.2
2018-01-07T08:08:11.485Z,1004.2
2018-01-07T08:09:13.021Z,1004.2
2018-01-07T08:10:14.924Z,1004.2
2018-01-07T08:11:16.417Z,1004.2
2018-01-07T08:12:18.285Z,1004.2
2018-01-07T08:13:19.849Z,1004.3
2018-01-07T08:14:21.337Z,1004.4
2018-01-07T08:15:23.008Z,1004.4
2018-01-07T08:16:24.586Z,1004.4
2018-01-07T08:17:26.079Z,1004.4
2018-01-07T08:18:27.610Z,1004.4
2018-01-07T08:19:29.109Z,1004.4
2018-01-07T08:20:30.602Z,1004.4
2018-01-07T08:21:32.834Z,1004.4
2018-01-07T08:22:35.032Z,1004.4
2018-01-07T08:23:37.440Z,1004.5
2018-01-07T08:24:40.378Z,1004.5
2018-01-07T08:25:41.885Z,1004.5
2018-01-07T08:26:43.422Z,1004.5
2018-01-07T08:27:44.938Z,1004.6
2018-01-07T08:28:46.397Z,1004.6
2018-01-07T08:29:47.926Z,1004.6
2018-01-07T08:30:49.443Z,1004.7
2018-01-07T08:31:50.904Z,1004.7
2018-01-07T08:32:52.454Z,1004.7
2018-01-07T08:33:53.978Z,1004.7
2018-01-07T08:34:55.592Z,1004.7
2018-01-07T08:35:57.166Z,1004.7
2018-01-07T08:36:58.761Z,1004.7
2018-01-07T08:38:00.281Z,1004.8
2018-01-07T08:39:01.864Z,1004.8
2018-01-07T08:40:03.327Z,1004.8
2018-01-07T08:41:04.959Z,1004.8
2018-01-07T08:42:06.499Z,1004.9
2018-01-07T08:43:07.974Z,1004.9
2018-01-07T08:44:09.537Z,1004.9
2018-01-07T08:45:11.062Z,1004.9
2018-01-07T08:46:12.721Z,1004.8
2018-01-07T08:47:14.447Z,1004.9
2018-01-07T08:48:16.031Z,1004.9
2018-01-07T08:49:17.511Z,1004.9
2018-01-07T08:50:19.143Z,1004.9
2018-01-07T08:51:20.639Z,1004.9
2018-01-07T08:52:22.246Z,1005.0
2018-01-07T08:53:23.840Z,1005.0
2018-01-07T08:54:25.352Z,1005.0
2018-01-07T08:55:26.960Z,1005.0
2018-01-07T08:56:28.454Z,1005.0
2018-01-07T08:57:29.914Z,1005.0
2018-01-07T08:58:31.456Z,1005.1
2018-01-07T08:59:33.118Z,1005.1
2018-01-07T09:00:34.676Z,1005.1
2018-01-07T09:01:36.260Z,1005.1
2018-01-07T09:02:37.769Z,1005.1
2018-01-07T09:03:39.244Z,1005.2
2018-01-07T09:04:40.714Z,1005.2
2018-01-07T09:05:42.499Z,1005.2
2018-01-07T09:06:45.131Z,1005.3
2018-01-07T09:07:46.605Z,1005.3
2018-01-07T09:08:48.047Z,1005.3
2018-01-07T09:09:49.574Z,1005.3
2018-01-07T09:10:51.065Z,1005.4
2018-01-07T09:11:52.545Z,1005.3
2018-01-07T09:12:54.053Z,1005.3
2018-01-07T09:13:55.601Z,1005.4
2018-01-07T09:14:57.096Z,1005.4
2018-01-07T09:15:58.779Z,1005.5
2018-01-07T09:17:00.359Z,1005.4
2018-01-07T09:18:01.848Z,1005.4
2018-01-07T09:19:03.382Z,1005.5
2018-01-07T09:20:04.927Z,1005.5
2018-01-07T09:21:06.408Z,1005.5
2018-01-07T09:22:07.943Z,1005.6
2018-01-07T09:23:09.432Z,1005.5
2018-01-07T09:24:11.009Z,1005.5
2018-01-07T09:25:12.519Z,1005.6
2018-01-07T09:26:14.018Z,1005.6
2018-01-07T09:27:28.014Z,1005.6
2018-01-07T09:28:30.037Z,1005.6
2018-01-07T09:29:33.454Z,1005.6
2018-01-07T09:30:35.055Z,1005.5
2018-01-07T09:31:36.568Z,1005.6
2018-01-07T09:32:38.038Z,1005.6
2018-01-07T09:33:39.745Z,1005.6
2018-01-07T09:34:41.362Z,1005.6
2018-01-07T09:35:42.891Z,1005.7
2018-01-07T09:36:44.404Z,1005.7
2018-01-07T09:37:46.078Z,1005.7
2018-01-07T09:38:47.609Z,1005.7
2018-01-07T09:39:49.164Z,1005.8
2018-01-07T09:40:50.675Z,1005.7
2018-01-07T09:41:52.239Z,1005.8
2018-01-07T09:42:53.738Z,1005.8
2018-01-07T09:43:55.272Z,1005.8
2018-01-07T09:44:56.804Z,1005.8
2018-01-07T09:45:58.326Z,1005.9
2018-01-07T09:46:59.847Z,1005.9
2018-01-07T09:48:01.372Z,1005.9
2018-01-07T09:49:02.805Z,1005.9
2018-01-07T09:50:04.343Z,1005.9
2018-01-07T09:51:05.880Z,1005.9
2018-01-07T09:52:07.371Z,1005.9
2018-01-07T09:53:09.058Z,1005.9
2018-01-07T09:54:10.562Z,1006.0
2018-01-07T09:55:12.030Z,1006.0
2018-01-07T09:56:13.492Z,1006.0
2018-01-07T09:57:15.000Z,1006.0
2018-01-07T09:58:16.583Z,1006.0
2018-01-07T09:59:20.217Z,1006.1
2018-01-07T10:00:21.615Z,1006.1
2018-01-07T10:01:23.054Z,1006.1
2018-01-07T10:02:24.579Z,1006.1
2018-01-07T10:03:26.497Z,1006.1
2018-01-07T10:05:13.133Z,1006.2
2018-01-07T10:06:14.621Z,1006.2
2018-01-07T10:07:16.522Z,1006.1
2018-01-07T10:08:17.965Z,1006.2
2018-01-07T10:09:19.402Z,1006.2
2018-01-07T10:10:20.773Z,1006.2
2018-01-07T10:11:22.278Z,1006.2
2018-01-07T10:12:23.860Z,1006.2
2018-01-07T10:13:25.663Z,1006.2
2018-01-07T10:14:27.184Z,1006.1
2018-01-07T10:15:28.690Z,1006.2
2018-01-07T10:16:30.173Z,1006.2
2018-01-07T10:17:31.698Z,1006.1
2018-01-07T10:18:33.183Z,1006.2
2018-01-07T10:19:34.656Z,1006.1
2018-01-07T10:20:36.241Z,1006.1
2018-01-07T10:21:37.815Z,1006.1
2018-01-07T10:22:39.388Z,1006.2
2018-01-07T10:23:40.854Z,1006.2
2018-01-07T10:24:42.380Z,1006.1
2018-01-07T10:25:43.964Z,1006.1
2018-01-07T10:26:45.446Z,1006.2
2018-01-07T10:27:46.959Z,1006.1
2018-01-07T10:28:50.702Z,1006.2
2018-01-07T10:29:54.416Z,1006.1
2018-01-07T10:30:56.188Z,1006.1
2018-01-07T10:31:57.725Z,1006.1
2018-01-07T10:32:59.425Z,1006.1
2018-01-07T10:34:00.935Z,1006.1
2018-01-07T10:35:02.647Z,1006.1
2018-01-07T10:36:04.071Z,1006.2
2018-01-07T10:37:05.690Z,1006.2
2018-01-07T10:38:07.297Z,1006.2
2018-01-07T10:39:08.840Z,1006.2
2018-01-07T10:40:10.436Z,1006.2
2018-01-07T10:41:12.003Z,1006.2
2018-01-07T10:42:13.604Z,1006.2
2018-01-07T10:43:15.187Z,1006.2
2018-01-07T10:44:16.740Z,1006.2
2018-01-07T10:45:18.268Z,1006.3
2018-01-07T10:46:19.762Z,1006.3
2018-01-07T10:47:21.328Z,1006.3
2018-01-07T10:48:23.017Z,1006.2
2018-01-07T10:49:24.575Z,1006.3
2018-01-07T10:50:26.187Z,1006.3
2018-01-07T10:51:27.620Z,1006.3
2018-01-07T10:52:29.280Z,1006.3
2018-01-07T10:53:30.782Z,1006.3
2018-01-07T10:54:32.314Z,1006.3
2018-01-07T10:55:34.000Z,1006.3
2018-01-07T10:56:35.592Z,1006.3
2018-01-07T10:57:37.212Z,1006.2
2018-01-07T10:58:38.754Z,1006.3
2018-01-07T10:59:40.317Z,1006.3
2018-01-07T11:00:41.830Z,1006.3
2018-01-07T11:01:43.477Z,1006.3
2018-01-07T11:02:45.005Z,1006.3
2018-01-07T11:03:46.634Z,1006.3
2018-01-07T11:04:48.196Z,1006.3
2018-01-07T11:05:49.728Z,1006.3
2018-01-07T11:06:51.312Z,1006.3
2018-01-07T11:07:52.832Z,1006.3
2018-01-07T11:08:54.395Z,1006.3
2018-01-07T11:09:56.009Z,1006.3
2018-01-07T11:10:57.580Z,1006.3
2018-01-07T11:11:59.102Z,1006.3
2018-01-07T11:13:00.688Z,1006.3
2018-01-07T11:14:02.502Z,1006.3
2018-01-07T11:15:04.456Z,1006.3
2018-01-07T11:16:06.073Z,1006.3
2018-01-07T11:17:07.596Z,1006.4
2018-01-07T11:18:09.277Z,1006.4
2018-01-07T11:19:10.769Z,1006.4
2018-01-07T11:20:12.296Z,1006.4
2018-01-07T11:21:13.892Z,1006.4
2018-01-07T11:22:15.405Z,1006.4
2018-01-07T11:23:16.921Z,1006.4
2018-01-07T11:24:18.410Z,1006.4
2018-01-07T11:25:19.978Z,1006.4
2018-01-07T11:26:21.507Z,1006.4
2018-01-07T11:27:23.031Z,1006.4
2018-01-07T11:28:24.608Z,1006.5
2018-01-07T11:29:26.067Z,1006.4
2018-01-07T11:30:27.648Z,1006.5
2018-01-07T11:31:29.163Z,1006.4
2018-01-07T11:32:30.775Z,1006.4
2018-01-07T11:33:32.314Z,1006.5
2018-01-07T11:34:33.799Z,1006.4
2018-01-07T11:35:35.490Z,1006.5
2018-01-07T11:36:37.007Z,1006.4
2018-01-07T11:37:38.607Z,1006.4
2018-01-07T11:38:40.122Z,1006.5
2018-01-07T11:39:41.673Z,1006.4
2018-01-07T11:40:43.217Z,1006.4
2018-01-07T11:41:44.713Z,1006.4
2018-01-07T11:42:46.259Z,1006.4
2018-01-07T11:43:47.794Z,1006.4
2018-01-07T11:44:49.383Z,1006.5
2018-01-07T11:45:50.921Z,1006.5
2018-01-07T11:46:52.442Z,1006.5
2018-01-07T11:47:53.941Z,1006.5
2018-01-07T11:48:55.568Z,1006.4
2018-01-07T11:49:57.127Z,1006.4
2018-01-07T11:50:58.685Z,1006.4
2018-01-07T11:52:00.124Z,1006.5
2018-01-07T11:53:01.582Z,1006.4
2018-01-07T11:54:03.127Z,1006.4
2018-01-07T11:55:04.578Z,1006.4
2018-01-07T11:56:06.041Z,1006.4
2018-01-07T11:57:07.570Z,1006.4
2018-01-07T11:58:09.036Z,1006.5
2018-01-07T11:59:10.569Z,1006.4
2018-01-07T12:00:12.190Z,1006.5
2018-01-07T12:01:13.795Z,1006.5
2018-01-07T12:02:15.326Z,1006.5
2018-01-07T12:03:16.822Z,1006.5
2018-01-07T12:04:18.341Z,1006.5
2018-01-07T12:05:20.004Z,1006.5
2018-01-07T12:06:21.539Z,1006.5
2018-01-07T12:07:23.153Z,1006.5
2018-01-07T12:08:24.746Z,1006.4
2018-01-07T12:09:26.243Z,1006.5
2018-01-07T12:10:27.864Z,1006.5
2018-01-07T12:11:29.440Z,1006.5
2018-01-07T12:12:31.033Z,1006.5
2018-01-07T12:13:32.794Z,1006.5
2018-01-07T12:14:34.410Z,1006.5
2018-01-07T12:15:35.911Z,1006.5
2018-01-07T12:16:37.529Z,1006.5
2018-01-07T12:17:39.345Z,1006.5
2018-01-07T12:18:40.902Z,1006.5
2018-01-07T12:19:42.618Z,1006.4
2018-01-07T12:20:44.241Z,1006.5
2018-01-07T12:21:45.802Z,1006.5
2018-01-07T12:22:47.541Z,1006.5
2018-01-07T12:23:49.287Z,1006.4
2018-01-07T12:24:50.968Z,1006.5
2018-01-07T12:25:52.686Z,1006.4
2018-01-07T12:26:54.239Z,1006.5
2018-01-07T12:27:55.845Z,1006.5
2018-01-07T12:28:57.719Z,1006.5
2018-01-07T12:29:59.446Z,1006.5
2018-01-07T12:31:01.173Z,1006.5
2018-01-07T12:32:02.894Z,1006.5
2018-01-07T12:33:04.585Z,1006.5
2018-01-07T12:34:06.169Z,1006.5
2018-01-07T12:35:07.816Z,1006.5
2018-01-07T12:36:09.656Z,1006.5
2018-01-07T12:37:11.242Z,1006.6
2018-01-07T12:38:12.926Z,1006.6
2018-01-07T12:39:14.607Z,1006.6
2018-01-07T12:40:16.511Z,1006.7
2018-01-07T12:41:18.615Z,1006.6
2018-01-07T12:42:20.451Z,1006.6
2018-01-07T12:43:22.278Z,1006.7
2018-01-07T12:44:25.761Z,1006.7
2018-01-07T12:45:27.334Z,1006.7
2018-01-07T12:46:29.468Z,1006.6
2018-01-07T12:47:31.440Z,1006.6
2018-01-07T12:48:33.187Z,1006.6
2018-01-07T12:49:34.942Z,1006.7
2018-01-07T12:50:36.769Z,1006.7
2018-01-07T12:51:38.673Z,1006.7
2018-01-07T12:52:40.474Z,1006.7
2018-01-07T12:53:41.933Z,1006.7
2018-01-07T12:54:43.878Z,1006.7
2018-01-07T12:55:45.736Z,1006.7
2018-01-07T12:56:47.709Z,1006.6
2018-01-07T12:57:49.285Z,1006.7